EKOD

Odense Airport

Odense, Denmark
METAR EKOD 181450Z 22017KT 180V240 9999 FEW030 BKN050 21/15 Q1017
Observed Flight Rules
Aug-18 @ 14:50 UTC (7 hours ago) Visual Flight Rules
Wind Visibility Clouds
220° at 17 knots 10,000+ meters
  • Few at 3,000' AGL
  • Broken at 5,000' AGL
Temperatures Readings
Current 21°C / 70°F
Dewpoint 15°C / 59°F
Humidity 69%
Altimeter 30.03" Hg
Pressure 1017 hPa
Elevation 17
METAR EKOD 181450Z 22017KT 180V240 9999 FEW030 BKN050 21/15 Q1017
Observed Flight Rules
Aug-18 @ 14:50 UTC
(7 hours ago)
VFR
Wind Visibility
220° at 17 knots 10,000+ meters
Clouds
  • Few at 3,000' AGL
  • Broken at 5,000' AGL
Temperature Dewpoint
21°C / 70°F 15°C / 59°F
Humidity Altimeter Pressure
69% 30.03" Hg 1017 hPa